sensor_id;sensor_type;location;lat;lon;timestamp;P1;durP1;ratioP1;P2;durP2;ratioP2
51006;SDS011;37034;47.886;-3.904;2022-09-12T00:01:09;1.92;;;0.68;;
51006;SDS011;37034;47.886;-3.904;2022-09-12T00:03:37;3.53;;;0.68;;
51006;SDS011;37034;47.886;-3.904;2022-09-12T00:08:56;5.70;;;1.23;;
51006;SDS011;37034;47.886;-3.904;2022-09-12T00:11:23;4.95;;;0.70;;
51006;SDS011;37034;47.886;-3.904;2022-09-12T00:13:50;3.63;;;0.93;;
51006;SDS011;37034;47.886;-3.904;2022-09-12T00:16:20;5.13;;;0.80;;
51006;SDS011;37034;47.886;-3.904;2022-09-12T00:18:47;2.53;;;0.60;;
51006;SDS011;37034;47.886;-3.904;2022-09-12T00:21:14;2.55;;;0.77;;
51006;SDS011;37034;47.886;-3.904;2022-09-12T00:23:42;2.97;;;0.70;;
51006;SDS011;37034;47.886;-3.904;2022-09-12T00:26:08;3.65;;;0.60;;
51006;SDS011;37034;47.886;-3.904;2022-09-12T00:28:34;3.08;;;0.65;;
51006;SDS011;37034;47.886;-3.904;2022-09-12T00:31:05;6.45;;;0.60;;
51006;SDS011;37034;47.886;-3.904;2022-09-12T00:33:32;3.28;;;0.90;;
51006;SDS011;37034;47.886;-3.904;2022-09-12T00:35:59;4.20;;;0.93;;
51006;SDS011;37034;47.886;-3.904;2022-09-12T00:38:28;3.53;;;0.60;;
51006;SDS011;37034;47.886;-3.904;2022-09-12T00:40:53;5.43;;;0.70;;
51006;SDS011;37034;47.886;-3.904;2022-09-12T00:46:47;2.80;;;0.65;;
51006;SDS011;37034;47.886;-3.904;2022-09-12T00:51:51;2.65;;;0.70;;
51006;SDS011;37034;47.886;-3.904;2022-09-12T00:54:23;3.05;;;0.60;;
51006;SDS011;37034;47.886;-3.904;2022-09-12T00:56:53;3.45;;;0.70;;
51006;SDS011;37034;47.886;-3.904;2022-09-12T00:59:34;5.20;;;0.60;;
51006;SDS011;37034;47.886;-3.904;2022-09-12T01:02:04;3.35;;;0.70;;
51006;SDS011;37034;47.886;-3.904;2022-09-12T01:04:31;5.32;;;0.70;;
51006;SDS011;37034;47.886;-3.904;2022-09-12T01:06:58;3.55;;;0.80;;
51006;SDS011;37034;47.886;-3.904;2022-09-12T01:09:24;7.78;;;0.77;;
51006;SDS011;37034;47.886;-3.904;2022-09-12T01:11:50;4.30;;;0.60;;
51006;SDS011;37034;47.886;-3.904;2022-09-12T01:14:17;4.30;;;1.10;;
51006;SDS011;37034;47.886;-3.904;2022-09-12T01:16:44;6.45;;;0.70;;
51006;SDS011;37034;47.886;-3.904;2022-09-12T01:20:06;3.47;;;0.60;;
51006;SDS011;37034;47.886;-3.904;2022-09-12T01:27:56;4.97;;;0.50;;
51006;SDS011;37034;47.886;-3.904;2022-09-12T01:30:55;5.57;;;0.70;;
51006;SDS011;37034;47.886;-3.904;2022-09-12T01:47:55;4.45;;;0.80;;
51006;SDS011;37034;47.886;-3.904;2022-09-12T01:53:49;2.78;;;0.80;;
51006;SDS011;37034;47.886;-3.904;2022-09-12T01:56:26;4.95;;;0.80;;
51006;SDS011;37034;47.886;-3.904;2022-09-12T02:01:35;2.67;;;0.60;;
51006;SDS011;37034;47.886;-3.904;2022-09-12T02:04:19;1.83;;;0.50;;
51006;SDS011;37034;47.886;-3.904;2022-09-12T02:06:51;6.45;;;1.05;;
51006;SDS011;37034;47.886;-3.904;2022-09-12T02:09:28;2.20;;;0.60;;
51006;SDS011;37034;47.886;-3.904;2022-09-12T02:12:01;1.73;;;0.55;;
51006;SDS011;37034;47.886;-3.904;2022-09-12T02:14:30;2.30;;;0.70;;
51006;SDS011;37034;47.886;-3.904;2022-09-12T02:17:02;7.18;;;0.90;;
51006;SDS011;37034;47.886;-3.904;2022-09-12T02:19:35;2.83;;;0.50;;
51006;SDS011;37034;47.886;-3.904;2022-09-12T02:22:30;3.78;;;0.60;;
51006;SDS011;37034;47.886;-3.904;2022-09-12T02:24:59;2.03;;;0.57;;
51006;SDS011;37034;47.886;-3.904;2022-09-12T02:27:31;2.83;;;0.60;;
51006;SDS011;37034;47.886;-3.904;2022-09-12T02:30:07;2.78;;;0.70;;
51006;SDS011;37034;47.886;-3.904;2022-09-12T02:35:10;7.40;;;0.88;;
51006;SDS011;37034;47.886;-3.904;2022-09-12T02:40:31;7.07;;;0.73;;
51006;SDS011;37034;47.886;-3.904;2022-09-12T02:42:57;2.50;;;0.60;;
51006;SDS011;37034;47.886;-3.904;2022-09-12T02:45:25;5.50;;;0.85;;
51006;SDS011;37034;47.886;-3.904;2022-09-12T02:50:19;4.32;;;0.60;;
51006;SDS011;37034;47.886;-3.904;2022-09-12T02:52:45;9.35;;;0.70;;
51006;SDS011;37034;47.886;-3.904;2022-09-12T02:55:11;3.00;;;0.98;;
51006;SDS011;37034;47.886;-3.904;2022-09-12T02:57:38;4.97;;;0.60;;
51006;SDS011;37034;47.886;-3.904;2022-09-12T03:00:04;3.65;;;0.80;;
51006;SDS011;37034;47.886;-3.904;2022-09-12T03:05:23;3.75;;;0.90;;
51006;SDS011;37034;47.886;-3.904;2022-09-12T03:10:27;4.93;;;0.80;;
51006;SDS011;37034;47.886;-3.904;2022-09-12T03:18:47;5.20;;;0.63;;
51006;SDS011;37034;47.886;-3.904;2022-09-12T03:24:35;2.47;;;0.55;;
51006;SDS011;37034;47.886;-3.904;2022-09-12T03:27:12;4.47;;;1.25;;
51006;SDS011;37034;47.886;-3.904;2022-09-12T03:30:05;4.55;;;0.70;;
51006;SDS011;37034;47.886;-3.904;2022-09-12T03:32:49;5.40;;;0.70;;
51006;SDS011;37034;47.886;-3.904;2022-09-12T03:35:17;4.15;;;0.80;;
51006;SDS011;37034;47.886;-3.904;2022-09-12T03:37:45;2.92;;;0.50;;
51006;SDS011;37034;47.886;-3.904;2022-09-12T03:40:12;2.47;;;0.60;;
51006;SDS011;37034;47.886;-3.904;2022-09-12T03:42:39;6.47;;;0.63;;
51006;SDS011;37034;47.886;-3.904;2022-09-12T03:45:05;6.05;;;0.95;;
51006;SDS011;37034;47.886;-3.904;2022-09-12T03:49:57;1.77;;;0.95;;
51006;SDS011;37034;47.886;-3.904;2022-09-12T03:52:23;2.08;;;0.68;;
51006;SDS011;37034;47.886;-3.904;2022-09-12T03:54:49;4.60;;;0.63;;
51006;SDS011;37034;47.886;-3.904;2022-09-12T03:57:15;2.65;;;0.70;;
51006;SDS011;37034;47.886;-3.904;2022-09-12T03:59:41;2.70;;;0.75;;
51006;SDS011;37034;47.886;-3.904;2022-09-12T04:02:06;3.72;;;0.70;;
51006;SDS011;37034;47.886;-3.904;2022-09-12T04:04:33;3.53;;;0.80;;
51006;SDS011;37034;47.886;-3.904;2022-09-12T04:06:59;1.98;;;0.52;;
51006;SDS011;37034;47.886;-3.904;2022-09-12T04:09:25;4.35;;;0.82;;
51006;SDS011;37034;47.886;-3.904;2022-09-12T04:11:50;1.23;;;0.50;;
51006;SDS011;37034;47.886;-3.904;2022-09-12T04:14:16;3.70;;;0.50;;
51006;SDS011;37034;47.886;-3.904;2022-09-12T04:16:41;3.05;;;0.60;;
51006;SDS011;37034;47.886;-3.904;2022-09-12T04:19:08;5.80;;;0.70;;
51006;SDS011;37034;47.886;-3.904;2022-09-12T04:21:35;2.45;;;0.50;;
51006;SDS011;37034;47.886;-3.904;2022-09-12T04:24:01;3.95;;;0.70;;
51006;SDS011;37034;47.886;-3.904;2022-09-12T04:26:26;6.38;;;1.00;;
51006;SDS011;37034;47.886;-3.904;2022-09-12T04:28:54;6.93;;;0.88;;
51006;SDS011;37034;47.886;-3.904;2022-09-12T04:31:20;6.35;;;0.50;;
51006;SDS011;37034;47.886;-3.904;2022-09-12T04:33:51;3.22;;;0.70;;
51006;SDS011;37034;47.886;-3.904;2022-09-12T04:36:27;4.43;;;1.05;;
51006;SDS011;37034;47.886;-3.904;2022-09-12T04:38:53;4.95;;;0.73;;
51006;SDS011;37034;47.886;-3.904;2022-09-12T04:41:20;2.85;;;0.60;;
51006;SDS011;37034;47.886;-3.904;2022-09-12T04:43:51;2.78;;;0.75;;
51006;SDS011;37034;47.886;-3.904;2022-09-12T04:46:29;2.45;;;0.65;;
51006;SDS011;37034;47.886;-3.904;2022-09-12T04:48:56;3.28;;;0.70;;
51006;SDS011;37034;47.886;-3.904;2022-09-12T04:51:23;3.17;;;0.68;;
51006;SDS011;37034;47.886;-3.904;2022-09-12T04:53:52;5.00;;;0.80;;
51006;SDS011;37034;47.886;-3.904;2022-09-12T04:56:22;6.43;;;0.60;;
51006;SDS011;37034;47.886;-3.904;2022-09-12T04:58:49;6.07;;;1.15;;
51006;SDS011;37034;47.886;-3.904;2022-09-12T05:01:15;2.95;;;0.60;;
51006;SDS011;37034;47.886;-3.904;2022-09-12T05:03:46;4.75;;;0.75;;
51006;SDS011;37034;47.886;-3.904;2022-09-12T05:06:13;2.22;;;0.50;;
51006;SDS011;37034;47.886;-3.904;2022-09-12T05:08:43;3.92;;;0.60;;
51006;SDS011;37034;47.886;-3.904;2022-09-12T05:11:17;3.75;;;0.60;;
51006;SDS011;37034;47.886;-3.904;2022-09-12T05:13:46;5.13;;;0.85;;
51006;SDS011;37034;47.886;-3.904;2022-09-12T05:16:13;5.13;;;0.70;;
51006;SDS011;37034;47.886;-3.904;2022-09-12T05:18:40;5.30;;;0.80;;
51006;SDS011;37034;47.886;-3.904;2022-09-12T05:21:07;6.22;;;0.80;;
51006;SDS011;37034;47.886;-3.904;2022-09-12T05:23:34;4.78;;;0.65;;
51006;SDS011;37034;47.886;-3.904;2022-09-12T05:26:00;5.03;;;0.75;;
51006;SDS011;37034;47.886;-3.904;2022-09-12T05:28:29;4.53;;;0.60;;
51006;SDS011;37034;47.886;-3.904;2022-09-12T05:31:03;3.95;;;0.70;;
51006;SDS011;37034;47.886;-3.904;2022-09-12T05:33:35;3.55;;;0.70;;
51006;SDS011;37034;47.886;-3.904;2022-09-12T05:36:03;4.38;;;0.95;;
51006;SDS011;37034;47.886;-3.904;2022-09-12T05:38:30;2.15;;;0.50;;
51006;SDS011;37034;47.886;-3.904;2022-09-12T05:43:34;3.92;;;0.50;;
51006;SDS011;37034;47.886;-3.904;2022-09-12T05:46:02;5.45;;;0.77;;
51006;SDS011;37034;47.886;-3.904;2022-09-12T05:48:33;2.83;;;0.60;;
51006;SDS011;37034;47.886;-3.904;2022-09-12T05:51:04;2.95;;;0.73;;
51006;SDS011;37034;47.886;-3.904;2022-09-12T05:53:35;3.90;;;0.60;;
51006;SDS011;37034;47.886;-3.904;2022-09-12T05:56:09;3.75;;;0.80;;
51006;SDS011;37034;47.886;-3.904;2022-09-12T05:58:37;4.13;;;0.95;;
51006;SDS011;37034;47.886;-3.904;2022-09-12T06:01:07;2.88;;;0.70;;
51006;SDS011;37034;47.886;-3.904;2022-09-12T06:03:36;2.88;;;0.80;;
51006;SDS011;37034;47.886;-3.904;2022-09-12T06:06:05;4.53;;;0.82;;
51006;SDS011;37034;47.886;-3.904;2022-09-12T06:08:31;4.32;;;0.70;;
51006;SDS011;37034;47.886;-3.904;2022-09-12T06:10:59;1.27;;;0.50;;
51006;SDS011;37034;47.886;-3.904;2022-09-12T06:13:25;2.67;;;0.60;;
51006;SDS011;37034;47.886;-3.904;2022-09-12T06:15:51;4.25;;;0.80;;
51006;SDS011;37034;47.886;-3.904;2022-09-12T06:20:44;12.60;;;1.03;;
51006;SDS011;37034;47.886;-3.904;2022-09-12T06:23:10;2.70;;;0.70;;
51006;SDS011;37034;47.886;-3.904;2022-09-12T06:25:36;6.65;;;0.60;;
51006;SDS011;37034;47.886;-3.904;2022-09-12T06:28:02;5.20;;;0.73;;
51006;SDS011;37034;47.886;-3.904;2022-09-12T06:30:28;5.80;;;1.00;;
51006;SDS011;37034;47.886;-3.904;2022-09-12T06:32:54;3.22;;;0.60;;
51006;SDS011;37034;47.886;-3.904;2022-09-12T06:35:21;2.92;;;0.75;;
51006;SDS011;37034;47.886;-3.904;2022-09-12T06:37:47;4.50;;;0.80;;
51006;SDS011;37034;47.886;-3.904;2022-09-12T06:40:13;4.32;;;0.70;;
51006;SDS011;37034;47.886;-3.904;2022-09-12T06:42:39;2.60;;;0.73;;
51006;SDS011;37034;47.886;-3.904;2022-09-12T06:45:04;7.60;;;2.17;;
51006;SDS011;37034;47.886;-3.904;2022-09-12T06:47:30;6.57;;;1.02;;
51006;SDS011;37034;47.886;-3.904;2022-09-12T06:49:56;7.45;;;0.88;;
51006;SDS011;37034;47.886;-3.904;2022-09-12T06:52:22;4.95;;;0.77;;
51006;SDS011;37034;47.886;-3.904;2022-09-12T06:54:48;4.20;;;0.60;;
51006;SDS011;37034;47.886;-3.904;2022-09-12T06:57:14;5.85;;;0.82;;
51006;SDS011;37034;47.886;-3.904;2022-09-12T06:59:39;1.02;;;0.40;;
51006;SDS011;37034;47.886;-3.904;2022-09-12T07:02:05;3.63;;;0.85;;
51006;SDS011;37034;47.886;-3.904;2022-09-12T07:04:33;3.05;;;0.65;;
51006;SDS011;37034;47.886;-3.904;2022-09-12T07:07:00;2.53;;;0.63;;
51006;SDS011;37034;47.886;-3.904;2022-09-12T07:09:26;3.10;;;0.60;;
51006;SDS011;37034;47.886;-3.904;2022-09-12T07:11:54;6.13;;;0.73;;
51006;SDS011;37034;47.886;-3.904;2022-09-12T07:14:20;5.22;;;0.70;;
51006;SDS011;37034;47.886;-3.904;2022-09-12T07:16:45;4.32;;;1.13;;
51006;SDS011;37034;47.886;-3.904;2022-09-12T07:19:11;4.28;;;0.85;;
51006;SDS011;37034;47.886;-3.904;2022-09-12T07:21:37;2.70;;;0.63;;
51006;SDS011;37034;47.886;-3.904;2022-09-12T07:24:06;7.72;;;0.93;;
51006;SDS011;37034;47.886;-3.904;2022-09-12T07:26:33;5.50;;;0.90;;
51006;SDS011;37034;47.886;-3.904;2022-09-12T07:28:59;10.02;;;0.77;;
51006;SDS011;37034;47.886;-3.904;2022-09-12T07:31:26;4.68;;;0.75;;
51006;SDS011;37034;47.886;-3.904;2022-09-12T07:33:52;3.58;;;0.60;;
51006;SDS011;37034;47.886;-3.904;2022-09-12T07:36:19;4.38;;;0.68;;
51006;SDS011;37034;47.886;-3.904;2022-09-12T07:38:46;3.90;;;0.90;;
51006;SDS011;37034;47.886;-3.904;2022-09-12T07:41:19;3.70;;;0.70;;
51006;SDS011;37034;47.886;-3.904;2022-09-12T07:43:47;1.83;;;0.65;;
51006;SDS011;37034;47.886;-3.904;2022-09-12T07:46:17;7.25;;;1.20;;
51006;SDS011;37034;47.886;-3.904;2022-09-12T07:48:42;4.18;;;0.68;;
51006;SDS011;37034;47.886;-3.904;2022-09-12T07:51:09;4.45;;;0.68;;
51006;SDS011;37034;47.886;-3.904;2022-09-12T07:53:37;4.05;;;0.70;;
51006;SDS011;37034;47.886;-3.904;2022-09-12T07:56:05;2.75;;;0.85;;
51006;SDS011;37034;47.886;-3.904;2022-09-12T07:58:32;3.03;;;0.80;;
51006;SDS011;37034;47.886;-3.904;2022-09-12T08:03:33;2.90;;;0.75;;
51006;SDS011;37034;47.886;-3.904;2022-09-12T08:06:03;3.67;;;0.93;;
51006;SDS011;37034;47.886;-3.904;2022-09-12T08:08:37;2.45;;;0.60;;
51006;SDS011;37034;47.886;-3.904;2022-09-12T08:15:58;3.60;;;0.70;;
51006;SDS011;37034;47.886;-3.904;2022-09-12T08:18:25;2.95;;;0.80;;
51006;SDS011;37034;47.886;-3.904;2022-09-12T08:20:58;2.35;;;0.80;;
51006;SDS011;37034;47.886;-3.904;2022-09-12T08:23:25;6.13;;;1.00;;
51006;SDS011;37034;47.886;-3.904;2022-09-12T08:25:56;2.78;;;0.75;;
51006;SDS011;37034;47.886;-3.904;2022-09-12T08:28:22;5.70;;;1.15;;
51006;SDS011;37034;47.886;-3.904;2022-09-12T08:30:49;3.63;;;0.77;;
51006;SDS011;37034;47.886;-3.904;2022-09-12T08:33:15;6.65;;;1.10;;
51006;SDS011;37034;47.886;-3.904;2022-09-12T08:35:40;4.60;;;1.08;;
51006;SDS011;37034;47.886;-3.904;2022-09-12T08:38:06;2.50;;;0.90;;
51006;SDS011;37034;47.886;-3.904;2022-09-12T08:40:32;3.05;;;0.80;;
51006;SDS011;37034;47.886;-3.904;2022-09-12T08:46:16;7.65;;;0.90;;
51006;SDS011;37034;47.886;-3.904;2022-09-12T08:48:47;4.93;;;0.93;;
51006;SDS011;37034;47.886;-3.904;2022-09-12T08:51:14;4.18;;;0.85;;
51006;SDS011;37034;47.886;-3.904;2022-09-12T08:53:41;5.63;;;1.00;;
51006;SDS011;37034;47.886;-3.904;2022-09-12T08:56:08;4.85;;;0.90;;
51006;SDS011;37034;47.886;-3.904;2022-09-12T08:58:39;2.88;;;0.80;;
51006;SDS011;37034;47.886;-3.904;2022-09-12T09:12:09;5.68;;;0.82;;
51006;SDS011;37034;47.886;-3.904;2022-09-12T09:17:22;2.20;;;1.00;;
51006;SDS011;37034;47.886;-3.904;2022-09-12T09:20:32;2.78;;;0.90;;
51006;SDS011;37034;47.886;-3.904;2022-09-12T09:23:01;3.83;;;1.00;;
51006;SDS011;37034;47.886;-3.904;2022-09-12T09:28:22;2.58;;;0.90;;
51006;SDS011;37034;47.886;-3.904;2022-09-12T09:31:01;3.72;;;0.90;;
51006;SDS011;37034;47.886;-3.904;2022-09-12T09:33:30;4.75;;;0.80;;
51006;SDS011;37034;47.886;-3.904;2022-09-12T09:38:40;3.22;;;1.00;;
51006;SDS011;37034;47.886;-3.904;2022-09-12T09:44:16;2.13;;;0.85;;
51006;SDS011;37034;47.886;-3.904;2022-09-12T09:49:08;3.35;;;1.02;;
51006;SDS011;37034;47.886;-3.904;2022-09-12T09:51:38;4.05;;;1.10;;
51006;SDS011;37034;47.886;-3.904;2022-09-12T09:54:16;4.45;;;1.10;;
51006;SDS011;37034;47.886;-3.904;2022-09-12T09:56:49;4.35;;;1.10;;
51006;SDS011;37034;47.886;-3.904;2022-09-12T09:59:19;5.90;;;1.25;;
51006;SDS011;37034;47.886;-3.904;2022-09-12T10:01:57;5.22;;;1.25;;
51006;SDS011;37034;47.886;-3.904;2022-09-12T10:04:31;3.45;;;1.02;;
51006;SDS011;37034;47.886;-3.904;2022-09-12T10:07:00;4.03;;;1.30;;
51006;SDS011;37034;47.886;-3.904;2022-09-12T10:09:28;4.05;;;0.98;;
51006;SDS011;37034;47.886;-3.904;2022-09-12T10:11:57;6.22;;;1.20;;
51006;SDS011;37034;47.886;-3.904;2022-09-12T10:14:31;2.40;;;0.93;;
51006;SDS011;37034;47.886;-3.904;2022-09-12T10:17:03;2.90;;;0.82;;
51006;SDS011;37034;47.886;-3.904;2022-09-12T10:19:55;3.50;;;0.90;;
51006;SDS011;37034;47.886;-3.904;2022-09-12T10:22:22;2.15;;;0.98;;
51006;SDS011;37034;47.886;-3.904;2022-09-12T10:24:52;1.75;;;0.85;;
51006;SDS011;37034;47.886;-3.904;2022-09-12T10:27:32;2.65;;;1.00;;
51006;SDS011;37034;47.886;-3.904;2022-09-12T10:32:41;3.58;;;1.05;;
51006;SDS011;37034;47.886;-3.904;2022-09-12T10:35:27;3.53;;;0.90;;
51006;SDS011;37034;47.886;-3.904;2022-09-12T10:40:26;5.60;;;1.00;;
51006;SDS011;37034;47.886;-3.904;2022-09-12T10:42:55;2.00;;;1.00;;
51006;SDS011;37034;47.886;-3.904;2022-09-12T10:45:31;2.83;;;1.00;;
51006;SDS011;37034;47.886;-3.904;2022-09-12T10:50:54;1.90;;;0.88;;
51006;SDS011;37034;47.886;-3.904;2022-09-12T10:53:27;2.13;;;1.25;;
51006;SDS011;37034;47.886;-3.904;2022-09-12T11:15:30;3.20;;;1.00;;
51006;SDS011;37034;47.886;-3.904;2022-09-12T11:29:48;7.05;;;0.90;;
51006;SDS011;37034;47.886;-3.904;2022-09-12T11:42:47;5.05;;;1.15;;
51006;SDS011;37034;47.886;-3.904;2022-09-12T11:45:24;9.38;;;1.30;;
51006;SDS011;37034;47.886;-3.904;2022-09-12T11:51:02;3.50;;;0.95;;
51006;SDS011;37034;47.886;-3.904;2022-09-12T11:53:32;4.40;;;1.40;;
51006;SDS011;37034;47.886;-3.904;2022-09-12T11:56:11;7.25;;;1.83;;
51006;SDS011;37034;47.886;-3.904;2022-09-12T11:58:41;4.93;;;1.20;;
51006;SDS011;37034;47.886;-3.904;2022-09-12T12:01:16;4.72;;;1.33;;
51006;SDS011;37034;47.886;-3.904;2022-09-12T12:03:54;3.92;;;1.17;;
51006;SDS011;37034;47.886;-3.904;2022-09-12T12:06:29;5.40;;;1.50;;
51006;SDS011;37034;47.886;-3.904;2022-09-12T12:08:57;7.03;;;1.50;;
51006;SDS011;37034;47.886;-3.904;2022-09-12T12:11:30;10.65;;;1.90;;
51006;SDS011;37034;47.886;-3.904;2022-09-12T12:14:05;8.60;;;1.42;;
51006;SDS011;37034;47.886;-3.904;2022-09-12T12:16:39;6.10;;;1.40;;
51006;SDS011;37034;47.886;-3.904;2022-09-12T12:21:40;4.82;;;1.55;;
51006;SDS011;37034;47.886;-3.904;2022-09-12T12:29:10;5.60;;;1.65;;
51006;SDS011;37034;47.886;-3.904;2022-09-12T12:36:54;6.30;;;1.63;;
51006;SDS011;37034;47.886;-3.904;2022-09-12T12:41:58;8.57;;;1.60;;
51006;SDS011;37034;47.886;-3.904;2022-09-12T12:47:54;6.45;;;1.60;;
51006;SDS011;37034;47.886;-3.904;2022-09-12T12:50:01;5.07;;;1.30;;
51006;SDS011;37034;47.886;-3.904;2022-09-12T12:55:16;7.63;;;1.35;;
51006;SDS011;37034;47.886;-3.904;2022-09-12T12:57:57;8.80;;;1.20;;
51006;SDS011;37034;47.886;-3.904;2022-09-12T13:05:29;6.05;;;1.55;;
51006;SDS011;37034;47.886;-3.904;2022-09-12T13:10:49;5.95;;;1.50;;
51006;SDS011;37034;47.886;-3.904;2022-09-12T13:13:59;3.28;;;1.35;;
51006;SDS011;37034;47.886;-3.904;2022-09-12T13:16:31;7.45;;;1.25;;
51006;SDS011;37034;47.886;-3.904;2022-09-12T13:19:19;6.35;;;1.30;;
51006;SDS011;37034;47.886;-3.904;2022-09-12T13:22:00;4.90;;;1.25;;
51006;SDS011;37034;47.886;-3.904;2022-09-12T13:24:28;2.38;;;0.98;;
51006;SDS011;37034;47.886;-3.904;2022-09-12T13:26:53;8.10;;;1.33;;
51006;SDS011;37034;47.886;-3.904;2022-09-12T13:29:22;9.70;;;1.10;;
51006;SDS011;37034;47.886;-3.904;2022-09-12T13:31:57;3.08;;;0.90;;
51006;SDS011;37034;47.886;-3.904;2022-09-12T13:34:28;6.20;;;1.38;;
51006;SDS011;37034;47.886;-3.904;2022-09-12T13:47:47;3.28;;;1.15;;
51006;SDS011;37034;47.886;-3.904;2022-09-12T13:50:17;6.00;;;1.10;;
51006;SDS011;37034;47.886;-3.904;2022-09-12T13:52:57;4.25;;;0.90;;
51006;SDS011;37034;47.886;-3.904;2022-09-12T13:57:56;5.07;;;1.48;;
51006;SDS011;37034;47.886;-3.904;2022-09-12T14:00:26;2.88;;;1.10;;
51006;SDS011;37034;47.886;-3.904;2022-09-12T14:02:56;3.28;;;1.00;;
51006;SDS011;37034;47.886;-3.904;2022-09-12T14:05:42;3.20;;;1.13;;
51006;SDS011;37034;47.886;-3.904;2022-09-12T14:08:12;3.97;;;1.20;;
51006;SDS011;37034;47.886;-3.904;2022-09-12T14:10:40;2.75;;;1.05;;
51006;SDS011;37034;47.886;-3.904;2022-09-12T14:13:17;4.30;;;1.42;;
51006;SDS011;37034;47.886;-3.904;2022-09-12T14:15:46;5.13;;;2.03;;
51006;SDS011;37034;47.886;-3.904;2022-09-12T14:18:27;3.28;;;1.10;;
51006;SDS011;37034;47.886;-3.904;2022-09-12T14:20:56;3.65;;;1.08;;
51006;SDS011;37034;47.886;-3.904;2022-09-12T14:23:30;5.60;;;1.20;;
51006;SDS011;37034;47.886;-3.904;2022-09-12T14:25:59;5.47;;;1.25;;
51006;SDS011;37034;47.886;-3.904;2022-09-12T14:28:27;3.42;;;1.00;;
51006;SDS011;37034;47.886;-3.904;2022-09-12T14:33:32;2.47;;;0.90;;
51006;SDS011;37034;47.886;-3.904;2022-09-12T14:36:25;8.15;;;1.27;;
51006;SDS011;37034;47.886;-3.904;2022-09-12T14:38:53;5.47;;;1.58;;
51006;SDS011;37034;47.886;-3.904;2022-09-12T14:41:29;4.45;;;0.80;;
51006;SDS011;37034;47.886;-3.904;2022-09-12T14:43:58;3.20;;;0.90;;
51006;SDS011;37034;47.886;-3.904;2022-09-12T14:46:32;2.75;;;1.00;;
51006;SDS011;37034;47.886;-3.904;2022-09-12T14:49:01;3.17;;;1.20;;
51006;SDS011;37034;47.886;-3.904;2022-09-12T14:51:55;3.20;;;1.00;;
51006;SDS011;37034;47.886;-3.904;2022-09-12T14:56:56;3.88;;;1.33;;
51006;SDS011;37034;47.886;-3.904;2022-09-12T15:04:53;3.78;;;1.33;;
51006;SDS011;37034;47.886;-3.904;2022-09-12T15:10:25;8.23;;;1.25;;
51006;SDS011;37034;47.886;-3.904;2022-09-12T15:15:33;6.32;;;1.23;;
51006;SDS011;37034;47.886;-3.904;2022-09-12T15:18:00;4.38;;;1.23;;
51006;SDS011;37034;47.886;-3.904;2022-09-12T15:22:51;4.05;;;1.08;;
51006;SDS011;37034;47.886;-3.904;2022-09-12T15:25:17;6.35;;;1.20;;
51006;SDS011;37034;47.886;-3.904;2022-09-12T15:30:14;6.57;;;1.27;;
51006;SDS011;37034;47.886;-3.904;2022-09-12T15:32:41;8.93;;;1.63;;
51006;SDS011;37034;47.886;-3.904;2022-09-12T15:37:46;10.15;;;2.03;;
51006;SDS011;37034;47.886;-3.904;2022-09-12T15:40:12;7.82;;;2.05;;
51006;SDS011;37034;47.886;-3.904;2022-09-12T15:42:38;9.35;;;2.05;;
51006;SDS011;37034;47.886;-3.904;2022-09-12T15:45:13;3.13;;;1.38;;
51006;SDS011;37034;47.886;-3.904;2022-09-12T15:47:41;7.97;;;1.77;;
51006;SDS011;37034;47.886;-3.904;2022-09-12T15:50:07;6.93;;;1.70;;
51006;SDS011;37034;47.886;-3.904;2022-09-12T15:52:32;3.70;;;1.42;;
51006;SDS011;37034;47.886;-3.904;2022-09-12T15:54:58;3.53;;;1.67;;
51006;SDS011;37034;47.886;-3.904;2022-09-12T15:57:24;5.30;;;1.55;;
51006;SDS011;37034;47.886;-3.904;2022-09-12T15:59:49;3.25;;;1.58;;
51006;SDS011;37034;47.886;-3.904;2022-09-12T16:02:15;6.40;;;1.60;;
51006;SDS011;37034;47.886;-3.904;2022-09-12T16:04:40;4.68;;;1.30;;
51006;SDS011;37034;47.886;-3.904;2022-09-12T16:07:06;4.10;;;1.20;;
51006;SDS011;37034;47.886;-3.904;2022-09-12T16:09:32;15.32;;;1.90;;
51006;SDS011;37034;47.886;-3.904;2022-09-12T16:11:58;4.38;;;1.30;;
51006;SDS011;37034;47.886;-3.904;2022-09-12T16:14:23;3.35;;;1.40;;
51006;SDS011;37034;47.886;-3.904;2022-09-12T16:16:50;8.13;;;1.63;;
51006;SDS011;37034;47.886;-3.904;2022-09-12T16:19:20;6.57;;;2.33;;
51006;SDS011;37034;47.886;-3.904;2022-09-12T16:21:46;7.85;;;2.20;;
51006;SDS011;37034;47.886;-3.904;2022-09-12T16:24:11;7.80;;;2.20;;
51006;SDS011;37034;47.886;-3.904;2022-09-12T16:26:37;14.70;;;2.40;;
51006;SDS011;37034;47.886;-3.904;2022-09-12T16:29:03;9.57;;;2.50;;
51006;SDS011;37034;47.886;-3.904;2022-09-12T16:31:28;8.38;;;2.00;;
51006;SDS011;37034;47.886;-3.904;2022-09-12T16:36:21;8.07;;;2.42;;
51006;SDS011;37034;47.886;-3.904;2022-09-12T16:38:47;9.30;;;2.42;;
51006;SDS011;37034;47.886;-3.904;2022-09-12T16:41:15;7.90;;;2.10;;
51006;SDS011;37034;47.886;-3.904;2022-09-12T16:43:43;9.77;;;2.28;;
51006;SDS011;37034;47.886;-3.904;2022-09-12T16:46:11;12.48;;;2.25;;
51006;SDS011;37034;47.886;-3.904;2022-09-12T16:48:45;9.00;;;2.38;;
51006;SDS011;37034;47.886;-3.904;2022-09-12T16:51:16;10.82;;;2.70;;
51006;SDS011;37034;47.886;-3.904;2022-09-12T16:53:46;5.80;;;2.15;;
51006;SDS011;37034;47.886;-3.904;2022-09-12T16:56:13;11.52;;;1.98;;
51006;SDS011;37034;47.886;-3.904;2022-09-12T16:58:39;7.55;;;1.98;;
51006;SDS011;37034;47.886;-3.904;2022-09-12T17:01:13;7.55;;;2.10;;
51006;SDS011;37034;47.886;-3.904;2022-09-12T17:03:43;8.40;;;2.00;;
51006;SDS011;37034;47.886;-3.904;2022-09-12T17:08:39;10.57;;;2.13;;
51006;SDS011;37034;47.886;-3.904;2022-09-12T17:11:08;6.95;;;2.25;;
51006;SDS011;37034;47.886;-3.904;2022-09-12T17:13:38;8.10;;;2.47;;
51006;SDS011;37034;47.886;-3.904;2022-09-12T17:16:08;11.45;;;2.03;;
51006;SDS011;37034;47.886;-3.904;2022-09-12T17:18:35;8.15;;;2.22;;
51006;SDS011;37034;47.886;-3.904;2022-09-12T17:21:02;11.30;;;2.00;;
51006;SDS011;37034;47.886;-3.904;2022-09-12T17:23:28;8.20;;;2.47;;
51006;SDS011;37034;47.886;-3.904;2022-09-12T17:25:54;12.07;;;2.30;;
51006;SDS011;37034;47.886;-3.904;2022-09-12T17:28:19;14.50;;;2.42;;
51006;SDS011;37034;47.886;-3.904;2022-09-12T17:33:19;8.35;;;2.38;;
51006;SDS011;37034;47.886;-3.904;2022-09-12T17:35:44;13.85;;;2.70;;
51006;SDS011;37034;47.886;-3.904;2022-09-12T17:38:10;9.85;;;2.72;;
51006;SDS011;37034;47.886;-3.904;2022-09-12T17:40:35;9.20;;;2.53;;
51006;SDS011;37034;47.886;-3.904;2022-09-12T17:43:01;12.27;;;2.85;;
51006;SDS011;37034;47.886;-3.904;2022-09-12T17:45:27;10.90;;;3.08;;
51006;SDS011;37034;47.886;-3.904;2022-09-12T17:50:19;8.27;;;2.10;;
51006;SDS011;37034;47.886;-3.904;2022-09-12T17:52:45;14.45;;;2.67;;
51006;SDS011;37034;47.886;-3.904;2022-09-12T17:55:11;11.73;;;2.55;;
51006;SDS011;37034;47.886;-3.904;2022-09-12T17:57:38;12.57;;;2.53;;
51006;SDS011;37034;47.886;-3.904;2022-09-12T18:00:04;14.20;;;2.50;;
51006;SDS011;37034;47.886;-3.904;2022-09-12T18:02:31;9.95;;;2.28;;
51006;SDS011;37034;47.886;-3.904;2022-09-12T18:04:57;11.85;;;2.72;;
51006;SDS011;37034;47.886;-3.904;2022-09-12T18:07:23;10.00;;;2.72;;
51006;SDS011;37034;47.886;-3.904;2022-09-12T18:09:49;10.77;;;2.60;;
51006;SDS011;37034;47.886;-3.904;2022-09-12T18:12:15;12.05;;;2.83;;
51006;SDS011;37034;47.886;-3.904;2022-09-12T18:14:42;10.65;;;2.83;;
51006;SDS011;37034;47.886;-3.904;2022-09-12T18:17:07;7.60;;;2.33;;
51006;SDS011;37034;47.886;-3.904;2022-09-12T18:19:35;10.10;;;2.95;;
51006;SDS011;37034;47.886;-3.904;2022-09-12T18:22:02;10.10;;;2.75;;
51006;SDS011;37034;47.886;-3.904;2022-09-12T18:24:30;10.50;;;2.90;;
51006;SDS011;37034;47.886;-3.904;2022-09-12T18:29:22;10.38;;;2.53;;
51006;SDS011;37034;47.886;-3.904;2022-09-12T18:31:48;9.55;;;2.85;;
51006;SDS011;37034;47.886;-3.904;2022-09-12T18:34:14;12.57;;;2.80;;
51006;SDS011;37034;47.886;-3.904;2022-09-12T18:36:42;10.63;;;2.38;;
51006;SDS011;37034;47.886;-3.904;2022-09-12T18:39:10;15.63;;;2.97;;